KALM/ALM METAR and TAF weather

Enter ICAO airport designator
Station Type Date Time Source
KALM METAR 2018/01/19 17:35 UTC NOAA

KALM 191735Z AUTO 16007KT 020V030 10SM CLR 06/M10 A3018 RMK AO2


Station Type Date Time Source
KALM Decoded METAR 2018/01/19 17:35 UTC NOAA

Alamogordo-White, NM, United States (KALM) 32-50N 105-59W
Jan 19, 2018 - 12:35 PM EST / 2018.01.19 1735 UTC
Wind: from the SSE (160 degrees) at 8 MPH (7 KT) (direction variable):0
Visibility: 10 mile(s):0
Sky conditions: clear
Temperature: 42 F (6 C)
Dew Point: 14 F (-10 C)
Relative Humidity: 30%
Pressure (altimeter): 30.18 in. Hg (1022 hPa)
ob: KALM 191735Z AUTO 16007KT 020V030 10SM CLR 06/M10 A3018 RMK AO2
cycle: 17

Station Type Date Time Source
KALM TAF UTC NOAA

Error!


Example: see airport list